TimeCST,TemperatureF,Dew PointF,Humidity,Sea Level PressureIn,VisibilityMPH,Wind Direction,Wind SpeedMPH,Gust SpeedMPH,PrecipitationIn,Events,Conditions,WindDirDegrees,DateUTC
12:54 AM,42.1,39.0,89,29.93,10.0,Calm,Calm,-,N/A,,Scattered Clouds,0,2012-12-07 06:54:00
1:54 AM,42.1,39.0,89,29.92,10.0,Calm,Calm,-,N/A,,Clear,0,2012-12-07 07:54:00
2:54 AM,43.0,39.9,89,29.91,10.0,Calm,Calm,-,N/A,,Mostly Cloudy,0,2012-12-07 08:54:00
3:54 AM,46.0,42.1,86,29.88,10.0,ENE,4.6,-,N/A,,Overcast,70,2012-12-07 09:54:00
4:54 AM,46.0,42.1,86,29.88,10.0,ENE,3.5,-,N/A,,Overcast,70,2012-12-07 10:54:00
5:29 AM,46.4,42.8,87,29.87,10.0,Calm,Calm,-,N/A,,Overcast,0,2012-12-07 11:29:00
5:54 AM,46.9,43.0,86,29.88,10.0,Calm,Calm,-,N/A,,Overcast,0,2012-12-07 11:54:00
6:54 AM,46.9,44.1,90,29.88,10.0,Calm,Calm,-,N/A,,Overcast,0,2012-12-07 12:54:00
7:36 AM,48.2,44.6,87,29.87,10.0,Calm,Calm,-,N/A,,Overcast,0,2012-12-07 13:36:00
7:54 AM,48.0,45.0,89,29.88,10.0,Calm,Calm,-,N/A,,Overcast,0,2012-12-07 13:54:00
8:36 AM,48.2,46.4,93,29.87,10.0,Calm,Calm,-,N/A,,Overcast,0,2012-12-07 14:36:00
8:54 AM,50.0,46.0,86,29.88,10.0,Calm,Calm,-,N/A,,Overcast,0,2012-12-07 14:54:00
9:33 AM,50.0,46.4,87,29.88,8.0,Calm,Calm,-,N/A,,Overcast,0,2012-12-07 15:33:00
9:39 AM,50.0,46.4,87,29.88,9.0,Calm,Calm,-,N/A,,Overcast,0,2012-12-07 15:39:00
9:54 AM,50.0,46.0,86,29.89,5.0,Calm,Calm,-,N/A,,Overcast,0,2012-12-07 15:54:00
10:54 AM,50.0,46.9,89,29.88,7.0,Calm,Calm,-,0.00,,Overcast,0,2012-12-07 16:54:00
11:54 AM,53.1,48.0,83,29.85,6.0,Calm,Calm,-,N/A,,Haze,0,2012-12-07 17:54:00
12:47 PM,55.4,48.2,77,29.83,10.0,West,6.9,-,N/A,,Overcast,270,2012-12-07 18:47:00
12:54 PM,54.0,48.0,80,29.83,10.0,West,8.1,-,N/A,,Overcast,280,2012-12-07 18:54:00
1:54 PM,55.0,48.0,77,29.82,10.0,Variable,3.5,-,N/A,,Overcast,0,2012-12-07 19:54:00
2:54 PM,55.0,46.9,74,29.83,10.0,WNW,4.6,-,N/A,,Overcast,300,2012-12-07 20:54:00
3:54 PM,53.1,46.9,80,29.83,6.0,North,3.5,-,N/A,,Haze,360,2012-12-07 21:54:00
4:54 PM,50.0,46.0,86,29.84,5.0,Calm,Calm,-,N/A,,Overcast,0,2012-12-07 22:54:00
5:54 PM,50.0,46.9,89,29.86,5.0,NNW,4.6,-,N/A,,Overcast,330,2012-12-07 23:54:00
6:54 PM,50.0,46.4,87,29.87,4.0,NNW,4.6,-,N/A,,Overcast,340,2012-12-08 00:54:00
7:15 PM,50.0,46.4,87,29.87,4.0,NNW,4.6,-,N/A,,Overcast,340,2012-12-08 01:15:00
7:24 PM,50.0,46.4,87,29.87,5.0,Calm,Calm,-,N/A,,Overcast,0,2012-12-08 01:24:00
7:54 PM,50.0,46.9,89,29.87,5.0,NNW,3.5,-,N/A,,Overcast,340,2012-12-08 01:54:00
8:54 PM,50.0,46.9,89,29.87,4.0,NNW,3.5,-,N/A,,Overcast,330,2012-12-08 02:54:00
9:54 PM,50.0,46.9,89,29.87,4.0,NNW,3.5,-,N/A,,Overcast,340,2012-12-08 03:54:00
10:54 PM,48.9,46.0,90,29.88,4.0,NW,4.6,-,0.01,Rain,Light Rain,320,2012-12-08 04:54:00
11:19 PM,48.2,46.4,93,29.88,2.5,Calm,Calm,-,0.03,Rain,Rain,0,2012-12-08 05:19:00
11:29 PM,48.2,46.4,93,29.87,2.0,Calm,Calm,-,0.06,Rain,Rain,0,2012-12-08 05:29:00
11:52 PM,48.2,46.4,93,29.89,1.8,Calm,Calm,-,0.09,Rain,Rain,0,2012-12-08 05:52:00
11:54 PM,48.0,46.9,96,29.89,1.8,WSW,3.5,-,0.09,Rain,Rain,250,2012-12-08 05:54:00